Airfield :







YOU CAN JOIN US ON...

 
LOGIN :

Register | Disclaimer

   EN    FR    IT 

 









Legend :    VFR   Marginal VFR   IFR   Intensive IFR   Very Intensive IFR
Visi :
Ceiling :
>= 8 km
>= 3000ft
5 to 8 km
1000 to 3000 ft
1500m to 5 km
500 to 1000 ft
800 to 1500m
200 to 500 ft
< 800m
< 200 ft
Symbols :   Thunderstorms  Fog  Heavy snow  Heavy precipitations  Wind > 20 kt






- Airport Elevation : 39 ft
- IATA code : YNA


CYNA - Natashquan

CURRENT METAR :
  • 180103Z AUTO 26014G20KT 9SM BKN025 OVC100 M01/M05 A3027 RMK SLP254

EXPIRED METARs :
  • 180031Z AUTO 30006KT 250V320 9SM BKN023 OVC140 M03/M06 A3028 RMK SLP257
  • 180000Z AUTO 31005KT 9SM FEW022 OVC160 M04/M07 A3029 RMK SLP258
  • 172300Z AUTO 30008KT 9SM SCT024 BKN160 OVC190 M04/M07 A3028 RMK SLP257

TAF TAF CYNA
Valid from the 17 at 20:00 until the 18 at 08:00 UTC


171938Z 1720/1808 27012G22KT P6SM SKC
FM180000 26012G22KT P6SM FEW015 SCT070
TEMPO 1800/1808 BKN015
BECMG 1804/1806 25010KT RMK FCST BASED ON AUTO OBS. NXT FCST BY 180200Z



MET'MAP, your aeronautical weather chart ! - Copyright ORBIFLY December 2007 - Disclaimer

ORBIFLY MET'MAP TEAM :

Programming & Development : Alexandra Zaïnal
Concept & Development : Baudouin d'Aumeries
Co-Development & Prog : Marc-Olivier Méhu
Technical & hardware support : Manuel Goepfert

Contact : metmap@orbifly.com




SOURCES & CREDITS :

   NOAA